Home   Weather   Austria   Neusiedl am See   Past weeks
Flag for Austria

Past Weather in Neusiedl am See, Burgenland, Austria — Yesterday and Last 2 Weeks

Currently: 63 °F. Clear. (Weather station: Vienna Schwechat-Flughafen Airport, Austria). See more current weather

Past Weather in Neusiedl am See — Graph

°F

Neusiedl am See Temperature Yesterday

Maximum temperature yesterday: 77 °F (at 1:20 pm)
Minimum temperature yesterday: 61 °F (at 5:20 am)
Average temperature yesterday: 70 °F

High & Low Weather Summary for the Past Weeks

 TemperatureHumidityPressure
High88 °F (Jun 19, 6:20 pm)94% (Jun 9, 11:20 pm)30.21 "Hg (Jun 9, 11:20 pm)
Low46 °F (Jun 14, 4:50 am)39% (Jun 17, 3:20 pm)29.65 "Hg (Jun 10, 7:20 am)
Average68 °F69%29.95 "Hg
* Reported Jun 9 11:20 pm — Jun 24 10:50 pm, Neusiedl am See. Weather by CustomWeather, © 2024

Note: Actual official high and low records may vary slightly from our data, if they occured in-between our weather recording intervals... More about our weather records

Neusiedl am See Weather History for the Previous 24 Hours

Scroll right to see more
 ConditionsComfort  
Time TempWeatherWind HumidityBarometerVisibility
10:50 pm
Mon, Jun 24
64 °FClear.7 mph68%30.07 "Hg10 mi
10:20 pm64 °FClear.6 mph64%30.07 "Hg10 mi
9:50 pm68 °FClear.5 mph56%30.07 "Hg10 mi
9:20 pm68 °FPassing clouds.6 mph60%30.07 "HgN/A
8:50 pm70 °FSunny.7 mph57%30.07 "Hg10 mi
8:20 pm72 °FSunny.9 mph50%30.04 "Hg10 mi
7:50 pm73 °FSunny.12 mph50%30.04 "Hg10 mi
7:20 pm73 °FPassing clouds.10 mph50%30.04 "HgN/A
6:50 pm75 °FPassing clouds.12 mph47%30.04 "HgN/A
6:20 pm75 °FPassing clouds.13 mph47%30.04 "HgN/A
5:50 pm77 °FPassing clouds.12 mph44%30.04 "HgN/A
5:20 pm77 °FPassing clouds.14 mph44%30.04 "HgN/A
4:20 pm77 °FPassing clouds.10 mph44%30.04 "HgN/A
3:50 pm77 °FPassing clouds.13 mph47%30.04 "HgN/A
3:20 pm77 °FPassing clouds.12 mph47%30.04 "HgN/A
2:20 pm77 °FPassing clouds.13 mph47%30.07 "HgN/A
1:50 pm77 °FPassing clouds.14 mph47%30.07 "HgN/A
1:20 pm77 °FPassing clouds.12 mph47%30.07 "HgN/A
12:50 pm75 °FPassing clouds.14 mph47%30.07 "HgN/A
12:20 pm75 °FScattered clouds.10 mph50%30.07 "HgN/A
11:50 am75 °FScattered clouds.10 mph50%30.07 "HgN/A
11:20 am73 °FPassing clouds.12 mph53%30.09 "HgN/A
10:50 am73 °FPassing clouds.14 mph53%30.09 "HgN/A
10:20 am73 °FSunny.13 mph53%30.09 "Hg10 mi
9:50 am72 °FPassing clouds.10 mph65%30.09 "HgN/A
9:20 am72 °FPassing clouds.9 mph61%30.09 "HgN/A
8:50 am70 °FSunny.9 mph64%30.09 "Hg10 mi
8:20 am68 °FSunny.10 mph64%30.09 "Hg10 mi
7:50 am68 °FSunny.10 mph69%30.09 "Hg10 mi
7:20 am66 °FSunny.8 mph68%30.09 "Hg10 mi
6:50 am64 °FSunny.8 mph73%30.07 "Hg10 mi
6:20 am64 °FSunny.8 mph73%30.07 "Hg10 mi
5:50 am63 °FSunny.8 mph77%30.07 "Hg10 mi
5:20 am61 °FSunny.8 mph77%30.07 "Hg10 mi
4:20 am63 °FClear.8 mph73%30.07 "Hg10 mi
3:50 am63 °FClear.8 mph73%30.07 "Hg10 mi
3:20 am63 °FClear.7 mph73%30.07 "Hg10 mi
2:50 am63 °FClear.9 mph77%30.07 "Hg10 mi
2:20 am63 °FClear.7 mph77%30.04 "Hg10 mi
1:50 am64 °FClear.8 mph73%30.04 "Hg10 mi
1:20 am64 °FClear.7 mph73%30.04 "Hg10 mi
Weather by CustomWeather, © 2024

See weather overview